Mound Bayou, MS (38762)

3:42 PM CDT on July 24, 2014 (GMT -0500)
Cleveland Municipal (KRNV) Elev 138 ft | 33.76 °N, 90.76 °W | Change Station

Current weather conditions updated 7 minutes ago

Partly Cloudy
Partly Cloudy
82 °F
Feels Like 89 °F
N
10
Wind Variable Wind from North

Today is forecast to be Cooler than yesterday.

Today
High -- | Low -- °F
--% Chance of Precip.
Yesterday
High -- | Low -- °F
Precip. -- in
6:08 AM 8:09 PM
Waning Crescent, 4% visible
Pressure 30.00 in
Visibility 10.0 miles
Clouds Scattered Clouds 2500 ft
Mostly Cloudy 3500 ft
Heat Index 89 °F
Dew Point 76 °F
Humidity 80%
Rainfall 0.00 in
Snow Depth Not available.
UV 5 out of 12
Pollen 5.40 out of 12
Air Quality Not available.
Flu Activity Not available.
METAR KRNV 242035Z AUTO 35009KT 10SM SCT025 BKN035 28/24 A3000 RMK AO2 T02790242

More Conditions Fewer Conditions

Pressure 30.00 in
Visibility 10.0 miles
Clouds Scattered Clouds 2500 ft
Mostly Cloudy 3500 ft
Heat Index 89 °F
Dew Point 76 °F
Humidity 80%
Rainfall 0.00 in
Snow Depth Not available.
UV 5 out of 12
Pollen 5.40 out of 12
Air Quality Not available.
Flu Activity Not available.
METAR KRNV 242035Z AUTO 35009KT 10SM SCT025 BKN035 28/24 A3000 RMK AO2 T02790242

More Conditions Fewer Conditions

10-Day Weather Forecast

Almanac

Astronomy

Jul. 24, 2014 Rise Set
Actual Time 6:08 AM CDT 8:09 PM CDT
Civil Twilight 5:41 AM CDT 8:37 PM CDT
Nautical Twilight 5:07 AM CDT 9:11 PM CDT
Astronomical Twilight 4:30 AM CDT 9:47 PM CDT
Moon 4:16 AM CDT 6:26 PM CDT
Length of Visible Light 14h 56m
Length of Day
14h 00m
Tomorrow will be 1m 22s shorter.
Waning Crescent, 4% of the Moon is Illuminated
Today
Waning Crescent
Jul 26
New
Aug 3
First Quarter
Aug 10
Full
Aug 17
Last Quarter

Today's Extremes

State Highs State Lows

Community

WunderPhotos

Upload Photos

1,737,125 photos uploaded!

Nearby

Snow Depth

Station Depth Elevation
No new snow has been reported.

Earthquake Activity

City Distance Mag. Time & Date
No recent earthquake activity has been reported nearby.
Minimum magnitude displayed is 2.5.

Coastal Water Temperatures

Place Temperature
No Stations Reporting

Nearby Weather Stations

Station Location Temp. Heat Index Dew Point Humidity Wind Precip. Elev Updated Type
Clarksdale, Clarksdale, MS 82.8 °F 89 °F 74 °F 74% North  at  3.0 mph 0.00 in / hr 164 ft 3:42 PM CDT Rapid Fire

Show More Stations Show Fewer Stations